Time;durP1;ratioP1;P1;durP2;ratioP2;P2;SDS_P1;SDS_P2;PMS_P1;PMS_P2;Temp;Humidity;BMP_temperature;BMP_pressure;BME280_temperature;BME280_humidity;BME280_pressure;Samples;Min_cycle;Max_cycle;Signal;HPM_P1;HPM_P2
2021/05/22 00:00:11;;;;;;;3.10;1.63;;;;;;;;;;6179886;23;20465;-77
2021/05/22 00:02:38;;;;;;;5.40;1.80;;;;;;;;;;6155767;23;20406;-77
2021/05/22 00:05:05;;;;;;;7.60;2.10;;;;;;;;;;6183097;23;20457;-77
2021/05/22 00:07:32;;;;;;;3.27;2.17;;;;;;;;;;6182808;23;20413;-76
2021/05/22 00:09:59;;;;;;;4.73;1.73;;;;;;;;;;6153902;23;20442;-77
2021/05/22 00:12:27;;;;;;;4.17;2.17;;;;;;;;;;6182032;23;21030;-78
2021/05/22 00:14:54;;;;;;;2.97;1.80;;;;;;;;;;6177220;23;20995;-78
2021/05/22 00:17:20;;;;;;;6.33;2.30;;;;;;;;;;6178423;23;20399;-77
2021/05/22 00:19:47;;;;;;;4.30;1.90;;;;;;;;;;6180400;23;20433;-77
2021/05/22 00:22:14;;;;;;;3.70;2.20;;;;;;;;;;6257374;22;20400;-77
2021/05/22 00:24:41;;;;;;;3.40;1.90;;;;;;;;;;6268525;22;20396;-77
2021/05/22 00:27:08;;;;;;;4.97;2.40;;;;;;;;;;6269719;22;20490;-77
2021/05/22 00:29:36;;;;;;;2.90;1.80;;;;;;;;;;6271358;22;20817;-77
2021/05/22 00:32:02;;;;;;;5.20;2.83;;;;;;;;;;6276831;22;20446;-77
2021/05/22 00:34:29;;;;;;;6.30;2.30;;;;;;;;;;6278726;22;20396;-77
2021/05/22 00:36:56;;;;;;;2.67;1.90;;;;;;;;;;6273912;22;20479;-77
2021/05/22 00:39:22;;;;;;;3.47;1.87;;;;;;;;;;6274335;22;20416;-77
2021/05/22 00:41:49;;;;;;;3.83;2.20;;;;;;;;;;6271994;22;21193;-78
2021/05/22 00:44:18;;;;;;;3.77;2.20;;;;;;;;;;6275976;22;20465;-78
2021/05/22 00:46:46;;;;;;;5.43;2.07;;;;;;;;;;6274753;22;20406;-77
2021/05/22 00:49:14;;;;;;;3.23;2.10;;;;;;;;;;6276411;22;20428;-77
2021/05/22 00:51:41;;;;;;;4.20;1.90;;;;;;;;;;6274909;22;20506;-75
2021/05/22 00:54:08;;;;;;;4.63;2.03;;;;;;;;;;6271394;22;20403;-77
2021/05/22 00:56:35;;;;;;;5.83;1.97;;;;;;;;;;6273933;22;20414;-77
2021/05/22 00:59:01;;;;;;;4.40;2.23;;;;;;;;;;6273881;22;20428;-78
2021/05/22 01:01:28;;;;;;;6.57;2.73;;;;;;;;;;6275045;22;20723;-77
2021/05/22 01:03:56;;;;;;;3.20;1.93;;;;;;;;;;6273268;22;20486;-77
2021/05/22 01:06:27;;;;;;;3.03;1.60;;;;;;;;;;6276097;22;20407;-77
2021/05/22 01:08:56;;;;;;;2.30;1.80;;;;;;;;;;6272492;22;20436;-76
2021/05/22 01:11:23;;;;;;;5.00;1.83;;;;;;;;;;6273977;22;20411;-77
2021/05/22 01:13:52;;;;;;;4.93;1.80;;;;;;;;;;6274873;22;20443;-77
2021/05/22 01:16:21;;;;;;;4.73;1.90;;;;;;;;;;6241403;22;20404;-77
2021/05/22 01:18:49;;;;;;;4.23;1.90;;;;;;;;;;6272506;22;20965;-77
2021/05/22 01:21:17;;;;;;;3.00;1.60;;;;;;;;;;6275267;22;20419;-77
2021/05/22 01:23:47;;;;;;;3.67;1.63;;;;;;;;;;6272280;22;20407;-77
2021/05/22 01:26:15;;;;;;;5.53;1.90;;;;;;;;;;6274209;22;20404;-77
2021/05/22 01:28:44;;;;;;;3.57;1.90;;;;;;;;;;6273017;22;20944;-77
2021/05/22 01:31:11;;;;;;;2.00;1.47;;;;;;;;;;6274826;22;20400;-76
2021/05/22 01:33:38;;;;;;;2.83;1.57;;;;;;;;;;6248495;22;20444;-77
2021/05/22 01:36:05;;;;;;;2.87;1.67;;;;;;;;;;6245012;22;20397;-77
2021/05/22 01:38:32;;;;;;;4.87;1.90;;;;;;;;;;6273009;22;20474;-76
2021/05/22 01:40:59;;;;;;;4.23;1.83;;;;;;;;;;6272686;22;21043;-77
2021/05/22 01:43:27;;;;;;;4.37;1.90;;;;;;;;;;6274230;22;20713;-77
2021/05/22 01:45:55;;;;;;;3.70;2.10;;;;;;;;;;6274807;22;20396;-77
2021/05/22 01:48:23;;;;;;;4.90;1.40;;;;;;;;;;6274571;22;20408;-77
2021/05/22 01:50:51;;;;;;;7.13;1.47;;;;;;;;;;6272473;22;20432;-78
2021/05/22 01:53:19;;;;;;;3.90;1.70;;;;;;;;;;6273886;22;20475;-76
2021/05/22 01:55:47;;;;;;;3.50;1.30;;;;;;;;;;6270627;22;21046;-76
2021/05/22 01:58:14;;;;;;;5.40;2.30;;;;;;;;;;6271306;22;20414;-76
2021/05/22 02:00:44;;;;;;;2.20;1.33;;;;;;;;;;6246966;22;20404;-77
2021/05/22 02:03:13;;;;;;;5.90;1.50;;;;;;;;;;6274337;22;20432;-77
2021/05/22 02:05:40;;;;;;;4.20;1.80;;;;;;;;;;6270083;22;20889;-77
2021/05/22 02:08:09;;;;;;;4.40;1.80;;;;;;;;;;6273883;22;20495;-78
2021/05/22 02:10:36;;;;;;;3.07;1.47;;;;;;;;;;6274502;22;20407;-77
2021/05/22 02:13:04;;;;;;;3.83;1.77;;;;;;;;;;6271300;22;20450;-77
2021/05/22 02:15:32;;;;;;;3.37;1.70;;;;;;;;;;6276731;22;20400;-77
2021/05/22 02:18:02;;;;;;;4.13;1.60;;;;;;;;;;6249832;22;20396;-77
2021/05/22 02:20:29;;;;;;;6.93;1.70;;;;;;;;;;6276915;22;20400;-76
2021/05/22 02:22:57;;;;;;;4.97;2.10;;;;;;;;;;6276433;22;20388;-77
2021/05/22 02:25:24;;;;;;;4.32;1.48;;;;;;;;;;6267864;22;20716;-77
2021/05/22 02:27:51;;;;;;;5.87;1.80;;;;;;;;;;6269147;22;20557;-76
2021/05/22 02:30:18;;;;;;;3.58;1.75;;;;;;;;;;6273573;22;20954;-77
2021/05/22 02:32:47;;;;;;;5.10;1.60;;;;;;;;;;6271628;22;20204;-76
2021/05/22 02:35:15;;;;;;;5.63;1.80;;;;;;;;;;6273908;22;20400;-77
2021/05/22 02:37:41;;;;;;;5.70;1.63;;;;;;;;;;6273970;22;20403;-76
2021/05/22 02:40:10;;;;;;;1.53;1.43;;;;;;;;;;6275884;22;20416;-76
2021/05/22 02:42:38;;;;;;;2.87;1.50;;;;;;;;;;6271475;22;20781;-77
2021/05/22 02:45:08;;;;;;;7.40;1.85;;;9.00;99.90;;;;;;6271999;22;20877;-77
2021/05/22 02:47:39;;;;;;;5.70;2.40;;;;;;;;;;6274702;22;20619;-77
2021/05/22 02:50:08;;;;;;;4.43;2.00;;;;;;;;;;6273114;22;20416;-76
2021/05/22 02:52:36;;;;;;;4.85;1.70;;;;;;;;;;6272935;22;20444;-78
2021/05/22 02:55:05;;;;;;;5.70;1.60;;;;;;;;;;6249891;22;20531;-77
2021/05/22 02:57:33;;;;;;;3.60;1.50;;;;;;;;;;6275415;22;20404;-77
2021/05/22 03:00:00;;;;;;;5.03;1.63;;;;;;;;;;6276577;22;20499;-78
2021/05/22 03:02:27;;;;;;;2.95;1.55;;;;;;;;;;6272814;22;20962;-77
2021/05/22 03:04:54;;;;;;;6.20;1.80;;;;;;;;;;6273276;22;20173;-77
2021/05/22 03:07:21;;;;;;;4.33;2.17;;;;;;;;;;6272160;22;20188;-77
2021/05/22 03:09:49;;;;;;;3.93;1.50;;;;;;;;;;6271475;22;20420;-77
2021/05/22 03:12:19;;;;;;;6.37;1.77;;;;;;;;;;6274087;22;20436;-76
2021/05/22 03:14:46;;;;;;;3.13;1.60;;;;;;;;;;6273572;22;20400;-76
2021/05/22 03:17:13;;;;;;;2.80;1.97;;;;;;;;;;6276424;22;20422;-77
2021/05/22 03:19:39;;;;;;;2.63;1.55;;;;;;;;;;6271733;22;20424;-76
2021/05/22 03:22:06;;;;;;;3.40;1.93;;;;;;;;;;6276893;22;20476;-76
2021/05/22 03:24:33;;;;;;;3.83;1.70;;;;;;;;;;6276851;22;20408;-76
2021/05/22 03:27:01;;;;;;;8.33;2.30;;;;;;;;;;6270515;22;20434;-77
2021/05/22 03:29:28;;;;;;;4.30;2.10;;;;;;;;;;6272392;22;20789;-76
2021/05/22 03:31:55;;;;;;;4.70;1.87;;;;;;;;;;6271275;22;20980;-76
2021/05/22 03:34:21;;;;;;;4.23;2.10;;;;;;;;;;6274425;22;20490;-77
2021/05/22 03:36:48;;;;;;;3.40;1.60;;;;;;;;;;6273469;22;20450;-77
2021/05/22 03:39:15;;;;;;;5.38;2.10;;;;;;;;;;6274779;22;20424;-78
2021/05/22 03:41:42;;;;;;;6.20;2.27;;;;;;;;;;6272827;22;20176;-75
2021/05/22 03:44:10;;;;;;;4.47;2.03;;;;;;;;;;6266453;22;20966;-77
2021/05/22 03:46:37;;;;;;;4.27;2.00;;;;;;;;;;6273387;22;20971;-77
2021/05/22 03:49:04;;;;;;;10.67;2.27;;;;;;;;;;6273283;22;20959;-76
2021/05/22 03:51:31;;;;;;;3.40;1.90;;;;;;;;;;6273210;22;20993;-77
2021/05/22 03:53:57;;;;;;;4.03;1.53;;;;;;;;;;6274191;22;20764;-76
2021/05/22 03:56:25;;;;;;;1.93;1.50;;;;;;;;;;6265041;22;20426;-77
2021/05/22 03:58:52;;;;;;;8.47;2.17;;;;;;;;;;6274925;22;20424;-77
2021/05/22 04:01:21;;;;;;;3.63;1.67;;;;;;;;;;6271628;22;20479;-78
2021/05/22 04:03:47;;;;;;;7.03;1.83;;;;;;;;;;6247833;22;20399;-78
2021/05/22 04:06:15;;;;;;;8.80;2.40;;;;;;;;;;6276580;22;20412;-75
2021/05/22 04:08:42;;;;;;;3.30;1.73;;;;;;;;;;6275465;22;20427;-76
2021/05/22 04:11:09;;;;;;;5.63;2.07;;;;;;;;;;6273147;22;20396;-79
2021/05/22 04:13:36;;;;;;;4.57;2.70;;;;;;;;;;6274779;22;20493;-77
2021/05/22 04:16:03;;;;;;;3.43;1.93;;;;;;;;;;6271512;22;20404;-77
2021/05/22 04:18:30;;;;;;;4.97;1.60;;;;;;;;;;6268382;22;20419;-77
2021/05/22 04:20:57;;;;;;;7.70;1.97;;;;;;;;;;6276476;22;20452;-77
2021/05/22 04:23:25;;;;;;;3.00;1.83;;;;;;;;;;6274581;22;20435;-78
2021/05/22 04:25:52;;;;;;;9.27;2.77;;;;;;;;;;6244180;22;20487;-77
2021/05/22 04:28:19;;;;;;;3.07;2.13;;;;;;;;;;6275556;22;20442;-76
2021/05/22 04:30:46;;;;;;;3.67;1.90;;;;;;;;;;6272180;22;20470;-76
2021/05/22 04:33:12;;;;;;;2.60;1.63;;;;;;;;;;6275520;22;20448;-76
2021/05/22 04:35:40;;;;;;;3.73;1.80;;;;;;;;;;6274114;22;20410;-78
2021/05/22 04:38:07;;;;;;;3.80;2.10;;;;;;;;;;6271640;22;20400;-80
2021/05/22 04:40:34;;;;;;;6.60;1.67;;;;;;;;;;6274507;22;20408;-79
2021/05/22 04:43:01;;;;;;;4.83;2.10;;;;;;;;;;6273430;22;20480;-79
2021/05/22 04:45:27;;;;;;;4.40;1.67;;;;;;;;;;6274633;22;20461;-77
2021/05/22 04:47:54;;;;;;;3.73;1.70;;;;;;;;;;6275303;22;20406;-80
2021/05/22 04:50:21;;;;;;;5.50;1.70;;;;;;;;;;6273614;22;20434;-77
2021/05/22 04:52:49;;;;;;;4.43;2.13;;;;;;;;;;6274667;22;20526;-79
2021/05/22 04:55:16;;;;;;;5.73;1.63;;;;;;;;;;6270569;22;20414;-78
2021/05/22 04:57:42;;;;;;;6.50;1.63;;;;;;;;;;6275667;22;20408;-78
2021/05/22 05:00:10;;;;;;;4.80;2.03;;;;;;;;;;6275998;22;20514;-76
2021/05/22 05:02:37;;;;;;;8.47;2.47;;;;;;;;;;6275886;22;20882;-77
2021/05/22 05:05:04;;;;;;;3.60;1.90;;;;;;;;;;6275648;22;20404;-77
2021/05/22 05:07:30;;;;;;;8.80;1.80;;;;;;;;;;6277418;22;20403;-79
2021/05/22 05:09:58;;;;;;;6.23;2.20;;;;;;;;;;6274005;22;20424;-79
2021/05/22 05:12:25;;;;;;;5.83;2.77;;;;;;;;;;6273717;22;20753;-78
2021/05/22 05:14:52;;;;;;;3.40;1.67;;;;;;;;;;6273566;22;20400;-76
2021/05/22 05:17:18;;;;;;;4.97;1.70;;;;;;;;;;6272674;22;20400;-77
2021/05/22 05:19:45;;;;;;;4.90;1.90;;;;;;;;;;6248174;22;20430;-77
2021/05/22 05:22:12;;;;;;;6.33;2.03;;;;;;;;;;6273344;22;20434;-76
2021/05/22 05:24:39;;;;;;;4.13;1.87;;;;;;;;;;6276265;22;20952;-79
2021/05/22 05:27:07;;;;;;;4.40;1.53;;;;;;;;;;6273344;22;20411;-81
2021/05/22 05:29:39;;;;;;;6.20;2.03;;;;;;;;;;6266164;22;20412;-77
2021/05/22 05:32:06;;;;;;;3.93;1.43;;;;;;;;;;6275757;22;20453;-78
2021/05/22 05:34:33;;;;;;;4.87;1.57;;;;;;;;;;6274340;22;20512;-78
2021/05/22 05:37:00;;;;;;;3.43;1.57;;;;;;;;;;6269032;22;20521;-78
2021/05/22 05:39:26;;;;;;;3.40;1.40;;;;;;;;;;6272494;22;20737;-79
2021/05/22 05:41:53;;;;;;;3.43;1.70;;;;;;;;;;6277481;22;20873;-79
2021/05/22 05:44:21;;;;;;;6.60;1.73;;;;;;;;;;6276417;22;20581;-76
2021/05/22 05:46:48;;;;;;;6.73;1.80;;;;;;;;;;6274613;22;20487;-78
2021/05/22 05:49:15;;;;;;;4.23;1.63;;;;;;;;;;6273119;22;20427;-78
2021/05/22 05:51:41;;;;;;;2.17;1.20;;;;;;;;;;6268778;22;20436;-77
2021/05/22 05:54:08;;;;;;;3.13;1.40;;;;;;;;;;6267772;22;20447;-86
2021/05/22 05:56:35;;;;;;;4.43;1.23;;;;;;;;;;6273339;22;20426;-78
2021/05/22 05:59:02;;;;;;;6.83;1.67;;;;;;;;;;6275615;22;20506;-77
2021/05/22 06:01:30;;;;;;;4.33;2.27;;;;;;;;;;6275192;22;20403;-79
2021/05/22 06:03:57;;;;;;;3.93;1.50;;;;;;;;;;6271941;22;20408;-78
2021/05/22 06:06:24;;;;;;;3.07;1.50;;;;;;;;;;6269406;22;20481;-77
2021/05/22 06:08:51;;;;;;;2.33;1.20;;;;;;;;;;6271379;22;20416;-77
2021/05/22 06:11:19;;;;;;;1.43;1.10;;;;;;;;;;6275173;22;20404;-77
2021/05/22 06:13:47;;;;;;;4.90;1.70;;;;;;;;;;6272426;22;20447;-77
2021/05/22 06:16:21;;;;;;;2.60;1.10;;;;;;;;;;6271793;22;20483;-77
2021/05/22 06:18:48;;;;;;;1.87;1.30;;;;;;;;;;6273697;22;20422;-76
2021/05/22 06:21:16;;;;;;;2.87;1.10;;;;;;;;;;6272487;22;20401;-75
2021/05/22 06:23:43;;;;;;;1.57;1.10;;;;;;;;;;6276135;22;20396;-74
2021/05/22 06:26:09;;;;;;;1.60;1.10;;;;;;;;;;6273387;22;20403;-75
2021/05/22 06:28:36;;;;;;;3.20;1.33;;;;;;;;;;6272150;22;21095;-77
2021/05/22 06:31:05;;;;;;;1.93;1.17;;;;;;;;;;6272345;22;21126;-76
2021/05/22 06:33:33;;;;;;;1.93;1.17;;;;;;;;;;6246711;22;20443;-78
2021/05/22 06:36:01;;;;;;;2.40;1.27;;;;;;;;;;6274243;22;20498;-76
2021/05/22 06:38:27;;;;;;;3.60;1.20;;;;;;;;;;6274367;22;20446;-77
2021/05/22 06:40:54;;;;;;;3.00;1.40;;;;;;;;;;6274015;22;20400;-77
2021/05/22 06:43:21;;;;;;;1.60;1.10;;;;;;;;;;6272013;22;20404;-76
2021/05/22 06:45:58;;;;;;;2.80;1.00;;;;;;;;;;6272571;22;20418;-76
2021/05/22 06:48:25;;;;;;;1.73;1.00;;;;;;;;;;6270564;22;20450;-84
2021/05/22 06:50:52;;;;;;;2.37;1.20;;;;;;;;;;6268631;22;20792;-75
2021/05/22 06:53:19;;;;;;;3.47;1.60;;;;;;;;;;6275361;22;20447;-77
2021/05/22 06:55:46;;;;;;;1.67;1.10;;;;;;;;;;6271659;22;20473;-78
2021/05/22 06:58:13;;;;;;;3.00;1.37;;;;;;;;;;6270951;22;20491;-80
2021/05/22 07:00:40;;;;;;;3.67;1.17;;;;;;;;;;6275515;22;20478;-78
2021/05/22 07:03:07;;;;;;;5.20;1.40;;;;;;;;;;6269255;22;21410;-80
2021/05/22 07:05:33;;;;;;;2.20;1.60;;;;;;;;;;6269123;22;20857;-79
2021/05/22 07:08:02;;;;;;;2.63;1.40;;;;;;;;;;6280018;22;20809;-75
2021/05/22 07:10:30;;;;;;;1.80;1.50;;;;;;;;;;6277186;22;20407;-77
2021/05/22 07:12:57;;;;;;;4.10;1.27;;;;;;;;;;6278139;22;20505;-77
2021/05/22 07:15:24;;;;;;;4.43;1.80;;;;;;;;;;6278923;22;20402;-77
2021/05/22 07:17:51;;;;;;;3.47;1.37;;;;;;;;;;6275090;22;20430;-81
2021/05/22 07:20:18;;;;;;;5.53;1.67;;;;;;;;;;6276281;22;20958;-76
2021/05/22 07:22:46;;;;;;;2.40;1.33;;;;;;;;;;6274095;22;20491;-76
2021/05/22 07:25:13;;;;;;;1.80;1.20;;;;;;;;;;6275319;22;20533;-75
2021/05/22 07:27:40;;;;;;;5.60;1.50;;;;;;;;;;6278657;22;20439;-78
2021/05/22 07:30:09;;;;;;;2.97;1.40;;;;;;;;;;6276594;22;20495;-80
2021/05/22 07:32:36;;;;;;;5.03;1.50;;;;;;;;;;6278575;22;20952;-78
2021/05/22 07:35:03;;;;;;;4.80;1.70;;;;;;;;;;6276777;22;21194;-76
2021/05/22 07:37:30;;;;;;;2.50;1.40;;;;;;;;;;6275932;22;20457;-76
2021/05/22 07:39:57;;;;;;;2.40;1.47;;;;;;;;;;6275285;22;20719;-78
2021/05/22 07:42:24;;;;;;;3.13;1.33;;;;;;;;;;6272698;22;20407;-75
2021/05/22 07:44:52;;;;;;;3.77;1.60;;;;;;;;;;6276988;22;20908;-79
2021/05/22 07:47:19;;;;;;;6.07;1.50;;;;;;;;;;6273339;22;20491;-76
2021/05/22 07:49:46;;;;;;;4.97;1.73;;;;;;;;;;6275968;22;20526;-76
2021/05/22 07:52:13;;;;;;;4.57;1.43;;;;;;;;;;6273560;22;20427;-76
2021/05/22 07:54:40;;;;;;;4.40;1.40;;;;;;;;;;6242158;22;20407;-76
2021/05/22 07:57:08;;;;;;;5.53;2.07;;;;;;;;;;6271956;22;20407;-76
2021/05/22 07:59:34;;;;;;;1.90;1.30;;;;;;;;;;6273159;22;20428;-75
2021/05/22 08:02:03;;;;;;;5.20;1.70;;;;;;;;;;6271156;22;20400;-77
2021/05/22 08:04:29;;;;;;;5.73;2.00;;;;;;;;;;6272573;22;20396;-77
2021/05/22 08:06:56;;;;;;;3.10;1.50;;;;;;;;;;6276116;22;20406;-75
2021/05/22 08:09:23;;;;;;;3.07;1.50;;;;;;;;;;6268696;22;20427;-76
2021/05/22 08:11:50;;;;;;;4.03;1.40;;;;;;;;;;6268461;22;20737;-79
2021/05/22 08:14:17;;;;;;;3.00;1.60;;;;;;;;;;6273979;22;20486;-79
2021/05/22 08:16:45;;;;;;;4.00;1.60;;;;;;;;;;6272914;22;20400;-78
2021/05/22 08:19:13;;;;;;;5.17;1.70;;;;;;;;;;6247284;22;20491;-80
2021/05/22 08:21:40;;;;;;;2.20;1.33;;;;;;;;;;6274515;22;20515;-77
2021/05/22 08:24:08;;;;;;;3.87;1.40;;;;;;;;;;6239413;22;20774;-78
2021/05/22 08:26:36;;;;;;;2.80;1.40;;;;;;;;;;6272993;22;20399;-77
2021/05/22 08:29:03;;;;;;;4.37;1.60;;;;;;;;;;6273467;22;20447;-79
2021/05/22 08:31:31;;;;;;;2.70;1.63;;;;;;;;;;6273537;22;20399;-77
2021/05/22 08:33:58;;;;;;;3.90;1.43;;;;;;;;;;6274576;22;20757;-77
2021/05/22 08:36:26;;;;;;;2.90;1.57;;;;;;;;;;6269604;22;20397;-78
2021/05/22 08:38:53;;;;;;;2.70;1.20;;;;;;;;;;6272057;22;20424;-80
2021/05/22 08:41:20;;;;;;;6.17;1.90;;;;;;;;;;6274933;22;20431;-79
2021/05/22 08:43:48;;;;;;;2.60;1.60;;;;;;;;;;6275721;22;20779;-78
2021/05/22 08:46:16;;;;;;;3.30;1.30;;;;;;;;;;6274930;22;20403;-77
2021/05/22 08:48:44;;;;;;;2.13;1.20;;;;;;;;;;6274051;22;20465;-80
2021/05/22 08:51:12;;;;;;;2.77;1.30;;;;;;;;;;6274726;22;20460;-77
2021/05/22 08:53:39;;;;;;;2.60;1.30;;;;;;;;;;6273078;22;20452;-79
2021/05/22 08:56:06;;;;;;;4.77;1.60;;;;;;;;;;6248665;22;20415;-78
2021/05/22 08:58:33;;;;;;;2.67;1.30;;;;;;;;;;6272010;22;20420;-78
2021/05/22 09:01:01;;;;;;;4.60;1.67;;;;;;;;;;6275860;22;20404;-78
2021/05/22 09:03:28;;;;;;;4.97;1.50;;;;;;;;;;6276161;22;20439;-80
2021/05/22 09:05:55;;;;;;;2.73;1.70;;;;;;;;;;6273536;22;20767;-78
2021/05/22 09:08:21;;;;;;;3.70;2.03;;;;;;;;;;6274052;22;20403;-78
2021/05/22 09:10:51;;;;;;;3.30;1.43;;;;;;;;;;6275018;22;20807;-78
2021/05/22 09:13:21;;;;;;;1.77;1.50;;;;;;;;;;6246425;22;20442;-78
2021/05/22 09:15:48;;;;;;;4.17;1.47;;;;;;;;;;6273133;22;20430;-78
2021/05/22 09:18:16;;;;;;;1.90;1.10;;;;;;;;;;6273509;22;20792;-79
2021/05/22 09:20:44;;;;;;;3.73;1.37;;;;;;;;;;6278580;22;20396;-78
2021/05/22 09:23:12;;;;;;;3.27;1.47;;;;;;;;;;6277286;22;20404;-76
2021/05/22 09:25:40;;;;;;;2.17;1.20;;;;;;;;;;6278511;22;20397;-78
2021/05/22 09:28:08;;;;;;;1.20;1.10;;;;;;;;;;6272800;22;20460;-78
2021/05/22 09:30:36;;;;;;;2.27;1.37;;;;;;;;;;6271513;22;20413;-84
2021/05/22 09:33:04;;;;;;;3.90;1.37;;;;;;;;;;6275810;22;20463;-83
2021/05/22 09:35:31;;;;;;;2.23;1.33;;;;;;;;;;6273491;22;20427;-80
2021/05/22 09:37:59;;;;;;;4.23;1.43;;;;;;;;;;6275990;22;20400;-79
2021/05/22 09:40:27;;;;;;;2.00;1.20;;;;;;;;;;6246109;22;21062;-78
2021/05/22 09:42:54;;;;;;;2.47;1.43;;;;;;;;;;6277394;22;20411;-78
2021/05/22 09:45:26;;;;;;;3.43;1.57;;;;;;;;;;6251656;22;20483;-78
2021/05/22 09:47:53;;;;;;;2.17;1.37;;;;;;;;;;6275923;22;20406;-78
2021/05/22 09:50:28;;;;;;;2.03;1.17;;;;;;;;;;6273331;22;20448;-78
2021/05/22 09:52:55;;;;;;;2.73;1.30;;;;;;;;;;6272751;22;20526;-80
2021/05/22 09:55:23;;;;;;;2.03;0.93;;;;;;;;;;6272711;22;20514;-79
2021/05/22 09:57:51;;;;;;;1.70;1.30;;;;;;;;;;6273609;22;20432;-80
2021/05/22 10:00:19;;;;;;;5.53;1.50;;;;;;;;;;6271897;22;20434;-78
2021/05/22 10:02:48;;;;;;;1.27;1.17;;;;;;;;;;6240185;22;20729;-78
2021/05/22 10:05:16;;;;;;;2.90;1.70;;;;;;;;;;6270055;22;20717;-77
2021/05/22 10:07:43;;;;;;;2.70;1.80;;;;;;;;;;6272726;22;20400;-76
2021/05/22 10:10:10;;;;;;;1.80;1.30;;;;;;;;;;6274020;22;20424;-76
2021/05/22 10:12:39;;;;;;;2.97;1.20;;;;;;;;;;6274924;22;20403;-78
2021/05/22 10:15:07;;;;;;;1.97;1.20;;;;;;;;;;6273031;22;20722;-82
2021/05/22 10:17:34;;;;;;;4.70;1.40;;;;;;;;;;6243980;22;20402;-77
2021/05/22 10:20:02;;;;;;;2.27;1.30;;;;;;;;;;6264886;22;20785;-75
2021/05/22 10:22:29;;;;;;;4.30;1.43;;;;;;;;;;6268597;22;20396;-78
2021/05/22 10:24:57;;;;;;;2.80;1.17;;;;;;;;;;6272837;22;20398;-78
2021/05/22 10:27:24;;;;;;;2.33;1.20;;;;;;;;;;6274656;22;20407;-79
2021/05/22 10:29:51;;;;;;;1.73;1.23;;;;;;;;;;6274493;22;20504;-78
2021/05/22 10:32:21;;;;;;;4.50;1.50;;;;;;;;;;6244494;22;20520;-80
2021/05/22 10:34:49;;;;;;;3.00;1.17;;;;;;;;;;6271513;22;20446;-81
2021/05/22 10:37:31;;;;;;;4.10;1.80;;;;;;;;;;6273594;22;20410;-78
2021/05/22 10:39:59;;;;;;;1.87;1.10;;;;;;;;;;6250247;22;20421;-79
2021/05/22 10:42:40;;;;;;;3.53;1.33;;;;;;;;;;6271063;22;20710;-79
2021/05/22 10:45:22;;;;;;;5.63;1.67;;;;;;;;;;6252472;22;20785;-77
2021/05/22 10:47:49;;;;;;;3.50;1.20;;;;;;;;;;6247963;22;20394;-80
2021/05/22 10:50:32;;;;;;;4.87;1.37;;;;;;;;;;6272755;22;20424;-78
2021/05/22 10:53:14;;;;;;;1.97;1.30;;;;;;;;;;6270028;22;20443;-77
2021/05/22 10:55:42;;;;;;;3.00;1.50;;;;;;;;;;6250346;22;20434;-80
2021/05/22 10:58:12;;;;;;;3.03;1.20;;;;;;;;;;6275023;22;20436;-76
2021/05/22 11:00:39;;;;;;;1.90;1.37;;;;;;;;;;6271555;22;20394;-78
2021/05/22 11:03:10;;;;;;;3.30;1.57;;;;;;;;;;6271539;22;20403;-79
2021/05/22 11:05:38;;;;;;;3.33;1.27;;;;;;;;;;6246476;22;20464;-78
2021/05/22 11:08:20;;;;;;;2.43;1.20;;;;;;;;;;6272536;22;20400;-80
2021/05/22 11:10:49;;;;;;;4.00;1.10;;;;;;;;;;6273818;22;20403;-79
2021/05/22 11:13:30;;;;;;;5.30;1.53;;;;;;;;;;6275508;22;20435;-79
2021/05/22 11:15:59;;;;;;;3.33;1.43;;;;;;;;;;6253990;22;20396;-79
2021/05/22 11:18:26;;;;;;;2.03;1.40;;;;;;;;;;6272527;22;20420;-81
2021/05/22 11:21:08;;;;;;;2.80;1.30;;;;;;;;;;6277473;22;20396;-77
2021/05/22 11:23:49;;;;;;;1.43;1.30;;;;;;;;;;6271518;22;20396;-77
2021/05/22 11:26:17;;;;;;;1.43;1.13;;;;;;;;;;6242904;22;20408;-77
2021/05/22 11:28:52;;;;;;;3.30;1.30;;;;;;;;;;6274727;22;20419;-80
2021/05/22 11:31:32;;;;;;;3.20;1.50;;;;;;;;;;6274206;22;20904;-77
2021/05/22 11:34:26;;;;;;;2.97;1.50;;;;;;;;;;6267656;22;20502;-80
2021/05/22 11:37:08;;;;;;;2.37;1.30;;;;;;;;;;6276898;22;20431;-77
2021/05/22 11:39:37;;;;;;;2.03;1.20;;;;;;;;;;6252543;22;20426;-78
2021/05/22 11:42:19;;;;;;;3.27;1.70;;;;;;;;;;6277223;22;20397;-78
2021/05/22 11:44:53;;;;;;;1.67;1.20;;;;;;;;;;6249864;22;20884;-77
2021/05/22 11:47:20;;;;;;;3.13;1.50;;;;;;;;;;6264985;22;20529;-77
2021/05/22 11:49:47;;;;;;;3.00;1.33;;;;;;;;;;6273562;22;20428;-80
2021/05/22 11:52:26;;;;;;;1.83;1.40;;;;;;;;;;6273128;22;20511;-79
2021/05/22 11:54:53;;;;;;;4.00;2.40;;;;;;;;;;6273181;22;20757;-78
2021/05/22 11:57:20;;;;;;;3.67;1.20;;;;;;;;;;6275425;22;20893;-83
2021/05/22 11:59:47;;;;;;;2.23;1.20;;;;;;;;;;6275589;22;20422;-80
2021/05/22 12:02:14;;;;;;;4.80;1.20;;;;;;;;;;6266440;22;20404;-77
2021/05/22 12:04:56;;;;;;;3.27;1.77;;;;;;;;;;6272609;22;20469;-76
2021/05/22 12:07:23;;;;;;;3.10;1.57;;;;;;;;;;6246994;22;20430;-78
2021/05/22 12:09:49;;;;;;;3.13;1.40;;;;;;;;;;6273444;22;20416;-77
2021/05/22 12:12:16;;;;;;;2.60;1.40;;;;;;;;;;6263403;22;20411;-76
2021/05/22 12:14:44;;;;;;;3.13;1.40;;;;;;;;;;6270397;22;20444;-78
2021/05/22 12:17:12;;;;;;;1.60;1.47;;;;;;;;;;6266959;22;20404;-78
2021/05/22 12:19:41;;;;;;;4.77;1.90;;;;;;;;;;6262865;22;20424;-76
2021/05/22 12:22:08;;;;;;;2.63;1.60;;;;;;;;;;6269134;22;20407;-77
2021/05/22 12:24:36;;;;;;;3.00;1.23;;;;;;;;;;6271874;22;20916;-79
2021/05/22 12:27:03;;;;;;;3.20;1.67;;;;;;;;;;6271922;22;20374;-78
2021/05/22 12:29:31;;;;;;;4.37;1.63;;;;;;;;;;6272875;22;20446;-77
2021/05/22 12:31:59;;;;;;;4.63;2.20;;;;;;;;;;6269412;22;20717;-76
2021/05/22 12:34:28;;;;;;;6.80;1.90;;;;;;;;;;6270825;22;20450;-77
2021/05/22 12:36:58;;;;;;;7.53;2.33;;;;;;;;;;6270506;22;20400;-77
2021/05/22 12:39:30;;;;;;;3.47;1.57;;;;;;;;;;6243697;22;20954;-77
2021/05/22 12:41:57;;;;;;;4.43;1.33;;;;;;;;;;6272093;22;20613;-77
2021/05/22 12:44:24;;;;;;;5.40;2.10;;;;;;;;;;6269868;22;20407;-78
2021/05/22 12:46:59;;;;;;;4.43;1.73;;;;;;;;;;6269509;22;20445;-78
2021/05/22 12:49:31;;;;;;;6.70;1.60;;;;;;;;;;6241819;22;20455;-76
2021/05/22 12:52:00;;;;;;;6.23;1.80;;;;;;;;;;6271376;22;20436;-78
2021/05/22 12:54:29;;;;;;;6.20;1.73;;;;;;;;;;6269049;22;20450;-81
2021/05/22 12:56:59;;;;;;;3.30;1.60;;;;;;;;;;6246295;22;20796;-75
2021/05/22 12:59:26;;;;;;;2.60;1.50;;;;;;;;;;6245648;22;21016;-78
2021/05/22 13:02:08;;;;;;;4.60;1.50;;;;;;;;;;6273355;22;20820;-76
2021/05/22 13:04:35;;;;;;;5.47;2.07;;;;;;;;;;6271497;22;20473;-78
2021/05/22 13:07:02;;;;;;;5.30;2.00;;;;;;;;;;6275374;22;20392;-78
2021/05/22 13:09:29;;;;;;;3.23;1.47;;;;;;;;;;6272346;22;20425;-79
2021/05/22 13:11:56;;;;;;;5.30;1.70;;;;;;;;;;6275843;22;20494;-77
2021/05/22 13:14:23;;;;;;;2.77;1.50;;;;;;;;;;6272405;22;20486;-78
2021/05/22 13:16:58;;;;;;;3.30;1.60;;;;;;;;;;6274053;22;20412;-76
2021/05/22 13:19:39;;;;;;;6.13;1.60;;;;;;;;;;6268487;22;20919;-77
2021/05/22 13:22:20;;;;;;;6.63;1.60;;;;;;;;;;6250723;22;20402;-75
2021/05/22 13:25:02;;;;;;;5.63;1.90;;;;;;;;;;6272074;22;20749;-79
2021/05/22 13:27:29;;;;;;;2.73;1.60;;;;;;;;;;6273216;22;20407;-78
2021/05/22 13:29:56;;;;;;;4.00;1.57;;;;;;;;;;6270548;22;20427;-76
2021/05/22 13:32:23;;;;;;;4.23;1.20;;;;;;;;;;6275239;22;20495;-81
2021/05/22 13:34:50;;;;;;;2.50;1.50;;;;;;;;;;6246915;22;20959;-77
2021/05/22 13:37:17;;;;;;;4.47;1.90;;;;;;;;;;6275630;22;20923;-80
2021/05/22 13:39:45;;;;;;;4.30;1.80;;;;;;;;;;6275465;22;20424;-76
2021/05/22 13:42:12;;;;;;;4.13;2.07;;;;;;;;;;6277913;22;20402;-80
2021/05/22 13:44:39;;;;;;;3.20;1.50;;;;;;;;;;6251614;22;20827;-77
2021/05/22 13:47:07;;;;;;;1.93;1.30;;;;;;;;;;6275996;22;20431;-77
2021/05/22 13:49:34;;;;;;;7.10;3.10;;;;;;;;;;6275055;22;20424;-78
2021/05/22 13:52:01;;;;;;;3.57;1.50;;;;;;;;;;6271351;22;20424;-75
2021/05/22 13:54:28;;;;;;;4.97;2.00;;;;;;;;;;6271943;22;20475;-76
2021/05/22 13:56:56;;;;;;;4.50;1.57;;;;;;;;;;6274859;22;20478;-78
2021/05/22 13:59:23;;;;;;;5.97;2.03;;;;;;;;;;6272879;22;20549;-78
2021/05/22 14:01:50;;;;;;;4.23;1.80;;;;;;;;;;6277153;22;20402;-78
2021/05/22 14:04:17;;;;;;;2.80;1.63;;;;;;;;;;6277590;22;20403;-76
2021/05/22 14:06:43;;;;;;;12.07;2.10;;;;;;;;;;6275873;22;20889;-79
2021/05/22 14:09:11;;;;;;;3.83;1.83;;;;;;;;;;6277368;22;20416;-78
2021/05/22 14:11:38;;;;;;;3.90;1.90;;;;;;;;;;6272727;22;20908;-78
2021/05/22 14:14:07;;;;;;;3.60;1.70;;;;;;;;;;6272019;22;20418;-75
2021/05/22 14:16:33;;;;;;;1.60;1.50;;;;;;;;;;6274445;22;20407;-76
2021/05/22 14:19:00;;;;;;;4.27;1.70;;;;;;;;;;6270060;22;20426;-75
2021/05/22 14:21:27;;;;;;;2.90;1.67;;;;;;;;;;6274740;22;20533;-76
2021/05/22 14:23:57;;;;;;;2.73;1.50;;;;;;;;;;6271196;22;20716;-76
2021/05/22 14:26:24;;;;;;;2.40;1.57;;;;;;;;;;6270254;22;20396;-78
2021/05/22 14:28:52;;;;;;;3.20;1.80;;;;;;;;;;6271271;22;20419;-76
2021/05/22 14:31:24;;;;;;;5.73;1.60;;;;;;;;;;6271980;22;20729;-83
2021/05/22 14:33:51;;;;;;;9.10;1.73;;;;;;;;;;6274422;22;20773;-76
2021/05/22 14:36:18;;;;;;;4.50;1.40;;;;;;;;;;6272372;22;20396;-75
2021/05/22 14:38:45;;;;;;;2.93;1.37;;;;;;;;;;6276151;22;20424;-75
2021/05/22 14:41:13;;;;;;;1.87;1.57;;;;;;;;;;6272797;22;20773;-75
2021/05/22 14:43:39;;;;;;;2.80;1.57;;;;;;;;;;6270947;22;20435;-75
2021/05/22 14:46:08;;;;;;;4.60;1.50;;;;;;;;;;6274830;22;20464;-76
2021/05/22 14:48:36;;;;;;;2.83;1.60;;;;;;;;;;6270624;22;20427;-77